Fernando Porto

Olheiro-Chefe - Sampaio Correa
14 Out 2027
Quinta-feira
Processo

Personalidade

Adaptabilidade (4) Ambição (11) Controvérsia (14) Lealdade (1) Pressão (3) Profissionalismo (7) Espírito Esportivo (2) Temperamento (19)

Perfil

Estilo de Treinamento Democrático
Licença Continental C
Determinação 8
Gestão de Pessoas 6
Motivação 10
Disciplina 4
Satisfação no Trabalho
100%
Fadiga
0%
Função Olheiro-Chefe
Salário 19.1K p/s
Contrato 14.03.2029

Desempenho

Comportamento Bom
Eficácia do Treinamento
36%
Desenvolvimento do Jogador
45%
Prevenção de Lesões
40%
Implementação Tática
55%

Eventos Recentes

Participou de uma reunião de recrutamento agora
Recomendou um alvo de transferência agora
Recomendou um alvo de transferência agora
Participou de uma reunião de recrutamento agora
Participou de uma reunião de recrutamento 7d atrás
Avaliou um jogador 7d atrás
Avaliou um jogador 7d atrás
Avaliou um jogador 7d atrás

Monitorando agora

294
Jogador Clube Status Habilidade Confiança Observado Última observação Último voto
Walter Juárez Güemes Ativo 119 / 106 40% 2 13.10.2027 -
Francisco Facello Chacarita Juniors Ativo 115 / 124 40% 2 13.10.2027 -
Mateo Mendoza Godoy Cruz Ativo 133 / 118 40% 3 10.10.2027 -
Bruno Leyes Godoy Cruz Ativo 134 / 121 40% 2 10.10.2027 -
Gonzalo Gamarra Defensores Ativo 101 / 103 40% 1 07.10.2027 -
Bryan Rivera Estudiantes de Merida Ativo 103 / 95 40% 1 07.10.2027 -
Delfor Minervino Estudiantes Ativo 122 / 110 40% 2 06.10.2027 -
Christopher Richards Enyimba Ativo 104 / 104 40% 1 06.10.2027 -
Sergi Palencia Los Angeles Football Club Ativo 122 / 133 40% 1 04.10.2027 -
Emanuel Iñíguez Morón Ativo 106 / 111 40% 1 04.10.2027 -
Fernando Bersano Madryn Ativo 126 / 110 40% 1 02.10.2027 -
Robert Voloder New York Red Bulls Ativo 125 / 112 40% 2 01.10.2027 -
Andrés Álvarez Aguilas Doradas Ativo 110 / 102 40% 1 01.10.2027 -
Leonardo Borja La Equidad Ativo 140 / 141 40% 3 30.09.2027 -
Sergio Reguilón Inter Miami CF Ativo 136 / 142 40% 2 30.09.2027 -
Dante Álvarez San Martín SJ Ativo 110 / 117 40% 2 29.09.2027 -
Gino Barbieri Almagro Ativo 118 / 121 40% 1 29.09.2027 -
Julián Cosi Madryn Ativo 117 / 114 40% 1 28.09.2027 -
Obinna Nwobodo FC Cincinnati Ativo 122 / 115 40% 1 27.09.2027 -
Abdulrafiu Taiwo Rivers United Ativo 82 / 84 40% 1 27.09.2027 -
Santiago Corbo Miramar Misiones Ativo 106 / 108 40% 3 26.09.2027 -
Facundo Ardiles Estudiantes Ativo 112 / 115 40% 3 22.09.2027 -
Kabiru Tijjani Shooting Stars Ativo 105 / 95 40% 1 22.09.2027 -
Ignacio Abraham Banfield Ativo 131 / 129 40% 2 21.09.2027 -
Ian Pérez Defensores Ativo 101 / 103 40% 1 21.09.2027 -
Tomás Fernández Alvarado Ativo 105 / 108 40% 1 20.09.2027 -
Pablo Adorno Plaza Colonia Ativo 118 / 114 40% 1 15.09.2027 -
Vicente Poggi Godoy Cruz Ativo 120 / 129 40% 1 14.09.2027 -
Gabriel Biriduba Bayelsa United Ativo 96 / 73 40% 1 14.09.2027 -
Godspower Akekoromowei El-Kanemi Warriors Ativo 108 / 101 40% 1 13.09.2027 -
Effimi Nsi Abia Warriors Ativo 82 / 112 40% 1 12.09.2027 -
Agustín Pereira Albion Ativo 114 / 110 40% 1 12.09.2027 -
Andrés Ferro Metropolitanos Ativo 111 / 105 40% 1 10.09.2027 -
Martín García Atlanta Ativo 113 / 119 40% 1 09.09.2027 -
Ho-yeon Jung Minnesota United FC Ativo 120 / 136 40% 1 07.09.2027 -
Aaron Herrera Charlotte Football Club Ativo 124 / 118 40% 1 07.09.2027 -
Innocent Arigu Katsina United Ativo 84 / 90 40% 2 03.09.2027 -
Daniel Dennis Ikorodu City Ativo 100 / 80 40% 1 03.09.2027 -
Agustín Bolívar Quilmes Ativo 115 / 121 40% 1 02.09.2027 -
Julius Emiloju Junior Bendel Insurance Ativo 84 / 92 40% 1 02.09.2027 -
Juan Pablo Córdoba Gimnasia y Esgrima Ativo 114 / 112 40% 1 31.08.2027 -
Mathías Silvera Chaco For Ever Ativo 115 / 121 40% 2 29.08.2027 -
Santiago López García Banfield Ativo 121 / 105 40% 1 29.08.2027 -
Lucas Monzón Alvarado Ativo 103 / 124 40% 1 27.08.2027 -
Mauricio Amaro Atlanta United FC Ativo 130 / 120 40% 1 24.08.2027 -
Facundo Kidd Plaza Colonia Ativo 103 / 103 40% 1 23.08.2027 -
Franco Malagueño Colegiales Ativo 101 / 122 40% 1 21.08.2027 -
Andrea Meroni Mantova Ativo 122 / 126 40% 1 20.08.2027 -
Ezequiel Neira Carabobo Ativo 114 / 111 40% 1 20.08.2027 -
Federico Artioli Juve Stabia Ativo 121 / 108 40% 1 18.08.2027 -
Aleš Matějů Spezia Ativo 128 / 118 40% 1 18.08.2027 -
Roger Manríque Zulia Ativo 110 / 112 40% 1 17.08.2027 -
Yolfran Caricote Metropolitanos Ativo 111 / 97 40% 1 15.08.2027 -
Gianluca Busio Venezia Ativo 141 / 151 40% 1 13.08.2027 -
Lucas Agazzi Defensor Sporting Ativo 115 / 129 40% 1 13.08.2027 -
Edoardo Masciangelo Catania Ativo 104 / 127 40% 1 12.08.2027 -
Álex Lebarbier Real Sociedad Ativo 117 / 123 40% 1 11.08.2027 -
Luca Villa Salernitana Ativo 108 / 129 40% 1 11.08.2027 -
Gonzalo Mottes Chacarita Juniors Ativo 117 / 110 40% 1 10.08.2027 -
Tomás Ribeiro Cultural Leonesa Ativo 119 / 107 40% 1 10.08.2027 -
Jayden Sweeney Grimsby Town Ativo 114 / 108 40% 2 09.08.2027 -
James Morris Leyton Orient Ativo 113 / 127 40% 2 09.08.2027 -
Marcus Ifill Gillingham Ativo 111 / 96 40% 1 08.08.2027 -
Nor Maviram Barnsley Ativo 112 / 114 40% 1 08.08.2027 -
Rafael Brito Lusitânia Lourosa Ativo 113 / 121 40% 2 07.08.2027 -
Terence Vancooten Burton Albion Ativo 111 / 94 40% 1 07.08.2027 -
Matías Gómez Granada Ativo 125 / 124 40% 1 06.08.2027 -
Lewis Freestone Stevenage Ativo 100 / 113 40% 1 06.08.2027 -
David Sousa Casa Pia Ativo 122 / 134 40% 2 04.08.2027 -
Hamza Choudhury Leicester City Ativo 135 / 134 40% 1 04.08.2027 -
Zak Swanson Bradford City Ativo 116 / 105 40% 2 03.08.2027 -
Jordan Gabriel Port Vale Ativo 111 / 126 40% 1 03.08.2027 -
Udoka Godwin-Malife Burton Albion Ativo 98 / 89 40% 3 02.08.2027 -
Andy Cannon Exeter City Ativo 97 / 112 40% 1 02.08.2027 -
Lorenzo Di Stefano Torres Ativo 108 / 109 40% 1 20.07.2027 -
Dale Taylor Blackpool Ativo 113 / 112 40% 1 20.07.2027 -
Giacomo Zecca Torres Ativo 102 / 118 40% 1 13.07.2027 -
Aaron Collins Milton Keynes Dons Ativo 113 / 121 40% 1 13.07.2027 -
Rhuan Gabriel Cruzeiro Ativo 90 / 96 62% 1 12.07.2027 Aprovar
Adriel São Paulo Ativo 84 / 79 62% 1 21.06.2027 Aprovar
Lamine Guèye Barrow AFC Ativo 128 / 112 40% 1 14.06.2027 -
Kyle Wootton Stockport County Ativo 127 / 108 40% 1 14.06.2027 -
Jay Matete Milton Keynes Dons Ativo 126 / 114 40% 1 01.06.2027 -
Thomas Luciano Plymouth Argyle Ativo 99 / 109 40% 2 31.05.2027 -
David Turnbull Cardiff City Ativo 110 / 133 40% 1 31.05.2027 -
Dom Ballard Leyton Orient Ativo 124 / 114 40% 1 31.05.2027 -
Ryan Stirk Chesterfield Ativo 109 / 103 40% 1 30.05.2027 -
Robbie McKenzie Gillingham Ativo 85 / 78 40% 1 29.05.2027 -
Liam Bennett Cambridge United Ativo 107 / 118 40% 1 29.05.2027 -
Josh Tymon Swansea City Ativo 133 / 111 40% 3 28.05.2027 -
Ilario Monterisi Frosinone Ativo 144 / 123 40% 1 28.05.2027 -
Mirko Topić Norwich City Ativo 111 / 111 40% 2 24.05.2027 -
Guillem Molina Huesca Ativo 121 / 121 40% 1 23.05.2027 -
Mattia Viti Sampdoria Ativo 143 / 133 40% 1 21.05.2027 -
Bali Mumba Huddersfield Town Ativo 129 / 133 40% 1 21.05.2027 -
Teden Mengi Luton Town Ativo 135 / 114 40% 2 20.05.2027 Mais informações
Weverson Gil Vicente Ativo 104 / 104 40% 2 19.05.2027 -
Radinio Balker Huddersfield Town Ativo 118 / 109 40% 6 19.05.2027 -
Elliot Bonds Fleetwood Town Ativo 110 / 106 40% 1 18.05.2027 -
Lewis Bate Stockport County Ativo 114 / 137 40% 1 16.05.2027 -
Jack Tucker Colchester United Ativo 106 / 84 40% 1 14.05.2027 -
Charlie Webster Burton Albion Ativo 121 / 106 40% 1 13.05.2027 -
Max Lowe Sheffield Wednesday Ativo 132 / 128 40% 1 13.05.2027 -
Archie Collins Peterborough United Ativo 113 / 113 40% 2 12.05.2027 -
Lewis Wing Reading Ativo 117 / 118 40% 1 12.05.2027 -
Dennis Cirkin Queens Park Rangers Ativo 139 / 122 40% 1 10.05.2027 -
Idris El Mizouni Leyton Orient Ativo 125 / 115 40% 1 09.05.2027 -
Gonçalo Oliveira Benfica Ativo 119 / 109 40% 2 06.05.2027 -
Isaac Kyereh Liberty Professionals Ativo 127 / 133 40% 1 05.05.2027 -
Kyle John Port Vale Ativo 95 / 103 40% 3 04.05.2027 -
James Furlong Walsall Ativo 105 / 102 40% 1 03.05.2027 -
Charlie Savage Reading Ativo 114 / 102 40% 1 29.04.2027 -
Ellis Iandolo Colchester United Ativo 92 / 113 40% 1 27.04.2027 -
Akin Famewo Bolton Wanderers Ativo 101 / 111 40% 1 26.04.2027 -
Roni AVS Ativo 115 / 103 40% 5 23.04.2027 -
Gonçalo Cardoso Pacos de Ferreira Ativo 111 / 114 40% 3 23.04.2027 -
Valery Académico de Viseu Ativo 120 / 108 40% 6 21.04.2027 -
Nabil Touaizi Alverca Ativo 110 / 133 40% 5 21.04.2027 -
Liziero Nacional Ativo 114 / 110 40% 3 20.04.2027 -
Zé Carlos Gil Vicente Ativo 128 / 113 40% 5 20.04.2027 -
Javi Sánchez Arouca Ativo 147 / 116 40% 3 18.04.2027 -
Andre Dozzell Doncaster Rovers Ativo 127 / 109 40% 1 18.04.2027 -
Ethan Pye Stockport County Ativo 125 / 114 40% 1 17.04.2027 -
Caolan Boyd-Munce Wycombe Wanderers Ativo 108 / 127 40% 1 16.04.2027 -
Luís Esteves Atlas Ativo 125 / 124 40% 6 15.04.2027 -
João Teixeira Porto Ativo 95 / 100 40% 3 15.04.2027 -
Dinis Rodrigues Porto Ativo 104 / 89 40% 2 14.04.2027 -
Robinho Académico de Viseu Ativo 117 / 119 40% 2 13.04.2027 -
Toni Tamarit Alverca Ativo 112 / 107 40% 1 13.04.2027 -
Jacques Ekomié Wrexham Ativo 133 / 123 40% 1 11.04.2027 -
Rodrigo Pinheiro Famalicao Ativo 113 / 120 40% 3 09.04.2027 -
Luís Bastos Oliveirense Ativo 87 / 88 40% 2 09.04.2027 -
Paulo Henrique Maritimo Ativo 117 / 127 40% 1 07.04.2027 -
Francisco Moura Lusitânia Lourosa Ativo 136 / 140 40% 3 03.04.2027 -
Marc Baró Leiria Ativo 102 / 95 40% 3 02.04.2027 -
Nicolas Madsen Queens Park Rangers Ativo 143 / 138 40% 1 31.03.2027 -
MT Santa Clara Ativo 109 / 129 40% 1 31.03.2027 -
Facundo Cáseres Gil Vicente Ativo 124 / 120 40% 2 30.03.2027 -
Maxime Dominguez Maritimo Ativo 124 / 131 40% 1 30.03.2027 -
Felipe Silva Porto Ativo 108 / 111 40% 1 27.03.2027 -
Tom Moustier Estrela da Amadora Ativo 122 / 112 40% 1 27.03.2027 -
Pedro Bondo Famalicao Ativo 102 / 113 40% 3 26.03.2027 -
Miguel Pires Vizela Ativo 112 / 108 40% 2 25.03.2027 -
Bruno Rodrigues Chaves Ativo 119 / 105 40% 1 22.03.2027 -
Ricard Sánchez Estoril Praia Ativo 115 / 134 40% 5 21.03.2027 -
Iano Simão Penafiel Ativo 104 / 97 40% 1 21.03.2027 -
Volnei Torreense Ativo 108 / 122 40% 1 19.03.2027 -
Anthony Correia Académico de Viseu Ativo 106 / 104 40% 1 16.03.2027 -
Martim Cunha Porto Ativo 91 / 110 40% 1 12.03.2027 -
Rob Atkinson Bristol City Ativo 120 / 136 40% 1 12.03.2027 -
Kellen Fisher Norwich City Ativo 135 / 133 40% 1 11.03.2027 -
Soufiane Messeguem Académico de Viseu Ativo 119 / 123 40% 2 06.03.2027 -
Tiago Esgaio Arouca Ativo 122 / 104 40% 1 06.03.2027 -
Harry Clarke Preston Ativo 125 / 122 40% 2 04.03.2027 -
Marvin Elimbi Gil Vicente Ativo 140 / 119 40% 3 04.03.2027 -
Jack Currie Oxford United Ativo 138 / 120 40% 2 03.03.2027 -
Afonso Peixoto Felgueiras Ativo 96 / 116 40% 2 27.02.2027 -
Brayan Medina Tondela Ativo 115 / 105 40% 3 27.02.2027 -
Mateja Stjepanović Moreirense Ativo 121 / 132 40% 2 23.02.2027 -
Leonardo Realpe Famalicao Ativo 121 / 116 40% 2 23.02.2027 -
Lucas Soares Santa Clara Ativo 127 / 126 40% 5 22.02.2027 -
Aleksandar Busnić KV Kortrijk Ativo 124 / 108 40% 2 22.02.2027 -
Maga Leiria Ativo 103 / 113 40% 2 21.02.2027 -
Dinis Pinto Moreirense Ativo 114 / 114 40% 4 21.02.2027 -
Pedro Ferreira Penafiel Ativo 131 / 118 40% 1 20.02.2027 -
Alfred Caicedo Vizela Ativo 100 / 128 40% 1 12.02.2027 -
Genaro Leiria Ativo 96 / 91 40% 1 08.02.2027 -
Jason Nainggolan Mouscron Ativo 111 / 112 40% 1 07.02.2027 -
Fernando Fonseca Leixões Ativo 118 / 126 40% 5 06.02.2027 -
Jordan Holsgrove Estoril Praia Ativo 129 / 134 40% 2 06.02.2027 -
Renato Sanches AVS Ativo 116 / 120 40% 2 04.02.2027 -
Aarón Mejía Tijuana Ativo 117 / 122 40% 1 04.02.2027 -
Marcus McGuane Huddersfield Town Ativo 117 / 115 40% 1 30.01.2027 -
Finn van Breemen Famalicao Ativo 132 / 105 40% 1 28.01.2027 -
Miguel Campos Santa Clara Ativo 110 / 130 40% 2 27.01.2027 -
Dylan Collard Lusitânia Lourosa Ativo 110 / 113 40% 1 27.01.2027 -
Jackson Porozo Tijuana Ativo 123 / 115 40% 1 25.01.2027 -
Rémy Vita Tondela Ativo 100 / 123 40% 1 24.01.2027 -
Phil Neumann Birmingham Ativo 111 / 104 40% 1 22.01.2027 -
João Queirós Feirense Ativo 122 / 92 40% 1 19.01.2027 -
Arnau Casas Torreense Ativo 123 / 100 40% 3 14.01.2027 -
Abdu Conté Casa Pia Ativo 111 / 127 40% 1 09.01.2027 -
Max Scholze Estrela da Amadora Ativo 109 / 102 40% 2 05.01.2027 -
André Silva Tondela Ativo 138 / 123 40% 2 30.12.2026 -
Pablo Fernández Leiria Ativo 117 / 97 40% 2 30.12.2026 -
Rafinha São Paulo Ativo 88 / 76 55% 1 21.12.2026 -
João Muniz Sporting CP Ativo 103 / 122 40% 4 16.12.2026 -
Tiago Ribeiro Oliveirense Ativo 120 / 101 40% 2 16.12.2026 -
Orlando Neto São Paulo Ativo 101 / 103 55% 1 07.12.2026 -
Lucas André São Paulo Ativo 91 / 97 55% 1 06.12.2026 -
Jorge Meireles AVS Ativo 122 / 101 40% 1 03.12.2026 Mais informações
Jhojan Julio Queretaro Ativo 131 / 130 40% 1 03.12.2026 -
Toby Collyer West Bromwich Albion Ativo 140 / 116 40% 1 27.11.2026 -
Milton Valenzuela Atlas Ativo 111 / 107 40% 1 26.11.2026 -
Diogo Spencer Alverca Ativo 132 / 135 40% 3 25.11.2026 -
Bosun Lawal Stoke City Ativo 114 / 139 40% 1 24.11.2026 -
Dario Špikić Rio Ave Ativo 115 / 125 40% 1 23.11.2026 -
Mathias De Amorim Famalicao Ativo 112 / 115 40% 1 20.11.2026 -
Alejandro Gómez Tijuana Ativo 129 / 121 40% 1 18.11.2026 -
Paulo Moreira Farense Ativo 120 / 118 40% 2 17.11.2026 -
Miguel Baeza Nacional Ativo 122 / 97 40% 1 16.11.2026 -
Adonis Frías Atlas Ativo 139 / 117 40% 4 12.11.2026 -
João Victor Mirassol Ativo 110 / 125 40% 1 11.11.2026 -
Santi García Gil Vicente Ativo 118 / 148 40% 1 11.11.2026 -
Marcos Peña Famalicao Ativo 111 / 121 40% 2 08.11.2026 -
Lorougnon Gohi Académico de Viseu Ativo 102 / 126 40% 2 07.11.2026 -
Jordan van der Gaag Leiria Ativo 128 / 110 40% 1 07.11.2026 -
Bernardo Schappo Estrela da Amadora Ativo 110 / 137 40% 2 02.11.2026 -
Sidney Lima Braga Ativo 124 / 114 40% 1 01.11.2026 -
Giorgos Liavas Rio Ave Ativo 109 / 120 40% 1 31.10.2026 -
João Basso Hajduk Split Ativo 106 / 101 40% 1 31.10.2026 -
Jérémy Livolant Casa Pia Ativo 138 / 133 40% 1 31.10.2026 -
Mario Climent Arouca Ativo 111 / 121 40% 1 29.10.2026 -
Joseph Nduquidi Farense Ativo 122 / 100 40% 1 28.10.2026 -
Matija Mitrović Vitoria Guimaraes Ativo 133 / 135 40% 1 25.10.2026 -
Mateo Garavito Deportivo Pasto Ativo 111 / 115 40% 1 24.10.2026 -
Pablo Rosario Porto Ativo 142 / 154 40% 1 24.10.2026 -
Matheus Bidu Corinthians Ativo 117 / 128 40% 1 23.10.2026 -
Emerson Royal Flamengo Ativo 121 / 135 40% 1 22.10.2026 -
Yaya Sithole Tondela Ativo 105 / 109 40% 1 22.10.2026 -
Leandro Dias Pacos de Ferreira Ativo 96 / 99 40% 1 21.10.2026 -
Kevin Höög Jansson Estrela da Amadora Ativo 103 / 112 40% 1 21.10.2026 -
Afonso Freitas Felgueiras Ativo 114 / 105 40% 1 20.10.2026 -
Max Bird Birmingham Ativo 134 / 129 40% 1 17.10.2026 -
Rômulo Tigres Ativo 129 / 131 40% 1 16.10.2026 -
Junior Hernández Deportes Tolima Ativo 129 / 105 40% 1 16.10.2026 -
Michael Carcelén Queretaro Ativo 109 / 123 40% 1 14.10.2026 -
Alexander Bah Benfica Ativo 142 / 129 40% 1 14.10.2026 -
Tom van de Looi Famalicao Ativo 136 / 132 40% 1 12.10.2026 -
Gustavo Garcia Famalicao Ativo 121 / 121 40% 1 11.10.2026 -
Gonçalo Nogueira Vitoria Guimaraes Ativo 135 / 125 40% 1 10.10.2026 -
Chiheb Labidi Nacional Ativo 123 / 98 40% 1 09.10.2026 -
Daniel Júnior Nacional Ativo 124 / 107 40% 1 07.10.2026 -
Rafael Barbosa Feirense Ativo 103 / 106 40% 2 06.10.2026 -
Paik Seung-Ho Birmingham Ativo 138 / 122 40% 1 06.10.2026 -
Figueiredo Alverca Ativo 111 / 137 40% 1 06.10.2026 -
Kévin Denkey FC Cincinnati Ativo 131 / 133 40% 1 26.09.2026 -
Duk Atlas Ativo 118 / 116 40% 1 26.09.2026 -
Alejandro Melo Cibalia Ativo 127 / 98 40% 2 25.09.2026 -
Yanis Begraoui Estoril Praia Ativo 147 / 122 40% 1 25.09.2026 -
André Lacximicant Estoril Praia Ativo 125 / 111 40% 1 23.09.2026 -
Rafael Navarro St. Louis CITY SC Ativo 129 / 123 40% 1 23.09.2026 -
Adnan Courtois KV Oostende Ativo 128 / 115 40% 3 22.09.2026 Observar
Santiago Sala Güemes Ativo 116 / 121 40% 1 22.09.2026 -
Tomás Chancalay Minnesota United FC Ativo 132 / 138 40% 2 20.09.2026 -
Lucas Duarte Felgueiras Ativo 109 / 118 40% 1 20.09.2026 -
David Miculescu FCSB Ativo 124 / 138 40% 1 18.09.2026 -
Héctor Hernández Gil Vicente Ativo 121 / 137 40% 2 16.09.2026 -
Dany Jean Torreense Ativo 117 / 118 40% 1 16.09.2026 -
Rodrigo Bogarín Barracas Central Ativo 130 / 128 40% 2 15.09.2026 -
Alexandre Duville-Parsemain Moreirense Ativo 103 / 99 40% 2 13.09.2026 -
Esteban da Silva Racing Ativo 115 / 123 40% 1 13.09.2026 -
Vasco Moreira Alverca Ativo 119 / 127 40% 1 13.09.2026 -
André Clovis Leiria Ativo 123 / 127 40% 1 10.09.2026 -
Wessam Abou Ali Columbus Crew Ativo 133 / 139 40% 1 09.09.2026 -
Luciano Cosentino Wanderers Ativo 130 / 134 40% 1 09.09.2026 -
João Gonçalves Felgueiras Ativo 127 / 101 40% 1 08.09.2026 -
Aynsley Pears Blackburn Rovers Ativo 120 / 124 40% 1 08.09.2026 -
Isaac James Alverca Ativo 96 / 92 40% 2 07.09.2026 -
Daniel Sappa San Miguel Ativo 106 / 117 40% 1 07.09.2026 -
Joaquín Silva Plaza Colonia Ativo 112 / 99 40% 1 07.09.2026 -
Aleksandar Vulić Vizela Ativo 98 / 90 40% 1 05.09.2026 -
Yousef Salech Cardiff City Ativo 112 / 142 40% 1 02.09.2026 -
Armindo Sieb Los Angeles Football Club Ativo 117 / 112 40% 1 02.09.2026 -
Henrique Araújo Casa Pia Ativo 131 / 114 40% 1 01.09.2026 -
Morgan Guilavogui Real Salt Lake Ativo 138 / 131 40% 1 31.08.2026 -
Pep Biel Charlotte Football Club Ativo 140 / 136 40% 1 30.08.2026 -
Federico Martínez Liverpool Montevideo Ativo 110 / 104 40% 1 30.08.2026 -
Chuchu Ramírez Nacional Ativo 126 / 126 40% 2 28.08.2026 -
Vinícius Lopes Santa Clara Ativo 123 / 114 40% 1 27.08.2026 -
Alejo Cruz Juventud Ativo 116 / 117 40% 1 24.08.2026 -
Tiago Leite Felgueiras Ativo 85 / 85 40% 1 23.08.2026 -
Jordan Morris Seattle Sounders Ativo 135 / 131 40% 2 21.08.2026 -
Breel Embolo Atlanta United FC Ativo 137 / 140 40% 2 21.08.2026 -
Mohammed Bouldini Académico de Viseu Ativo 137 / 132 40% 1 20.08.2026 -
Diego Romero Universitario Ativo 127 / 122 40% 1 20.08.2026 -
Antonio Gomis Vizela Ativo 98 / 131 40% 1 20.08.2026 -
André Moreira Oliveirense Ativo 122 / 129 40% 1 17.08.2026 -
Dylan Nandín Arouca Ativo 117 / 122 40% 1 17.08.2026 -
Rafik Guitane Estoril Praia Ativo 145 / 143 40% 1 16.08.2026 -
Tiago Galletto AVS Ativo 100 / 99 40% 1 16.08.2026 -
John Kennedy Fluminense Ativo 127 / 120 40% 1 15.08.2026 -
Enzo Vázquez Central Norte Ativo 112 / 111 40% 1 13.08.2026 -
Jorge Fernandes Gil Vicente Ativo 119 / 134 40% 1 12.08.2026 -
Timothy Castagne Fulham Ativo 147 / 133 40% 1 10.08.2026 -
Taichi Fukui Arouca Ativo 124 / 114 40% 1 09.08.2026 -
Zé Leite Leixões Ativo 124 / 100 40% 1 08.08.2026 -
Roméo Beney Famalicao Ativo 112 / 124 40% 1 05.08.2026 -
Jesus Ferreira Seattle Sounders Ativo 129 / 131 40% 1 05.08.2026 -
Ferro Estoril Praia Ativo 103 / 95 40% 1 04.08.2026 -
Ignacio de Arruabarrena Arouca Ativo 139 / 107 40% 1 04.08.2026 -
Andrew Flamengo Ativo 120 / 122 40% 1 04.08.2026 -
José Julián Martínez Alverca Ativo 107 / 127 40% 1 02.08.2026 -
Francisco Ramos Pacos de Ferreira Ativo 111 / 122 40% 1 01.08.2026 -